createdAt,value
2018-07-07T00:00:58.440Z,68.00
2018-07-07T00:03:26.275Z,68.00
2018-07-07T00:05:54.047Z,68.10
2018-07-07T00:08:21.834Z,69.10
2018-07-07T00:10:57.741Z,69.00
2018-07-07T00:13:25.555Z,70.50
2018-07-07T00:15:53.391Z,70.10
2018-07-07T00:18:21.193Z,71.20
2018-07-07T00:20:49.050Z,69.90
2018-07-07T00:23:16.847Z,70.20
2018-07-07T00:30:40.012Z,71.00
2018-07-07T00:33:07.913Z,71.30
2018-07-07T00:38:04.269Z,71.60
2018-07-07T00:42:59.707Z,72.80
2018-07-07T00:45:27.467Z,71.80
2018-07-07T00:50:23.003Z,72.70
2018-07-07T00:57:46.111Z,73.30
2018-07-07T01:00:13.883Z,73.40
2018-07-07T01:02:41.683Z,73.20
2018-07-07T01:05:20.698Z,73.70
2018-07-07T01:07:48.503Z,73.30
2018-07-07T01:10:16.340Z,73.70
2018-07-07T01:12:44.145Z,73.90
2018-07-07T01:17:39.591Z,74.70
2018-07-07T01:20:07.343Z,75.20
2018-07-07T01:22:35.188Z,75.20
2018-07-07T01:25:03.073Z,75.50
2018-07-07T01:27:30.803Z,74.70
2018-07-07T01:29:58.540Z,75.70
2018-07-07T01:32:26.232Z,75.10
2018-07-07T01:34:53.974Z,75.30
2018-07-07T01:37:21.742Z,75.10
2018-07-07T01:39:49.498Z,75.00
2018-07-07T01:42:17.271Z,75.10
2018-07-07T01:44:45.058Z,74.80
2018-07-07T01:47:12.832Z,74.90
2018-07-07T01:52:08.260Z,77.40
2018-07-07T01:54:36.015Z,75.80
2018-07-07T01:57:03.804Z,77.00
2018-07-07T01:59:31.552Z,76.50
2018-07-07T02:01:59.319Z,75.60
2018-07-07T02:04:27.091Z,74.60
2018-07-07T02:09:22.504Z,71.50
2018-07-07T02:11:50.307Z,69.00
2018-07-07T02:14:18.055Z,69.20
2018-07-07T02:19:13.481Z,68.10
2018-07-07T02:21:41.275Z,67.10
2018-07-07T02:24:09.030Z,66.70
2018-07-07T02:26:36.754Z,67.20
2018-07-07T02:29:04.639Z,66.60
2018-07-07T02:34:00.031Z,66.30
2018-07-07T02:36:27.875Z,66.30
2018-07-07T02:38:55.599Z,66.80
2018-07-07T02:43:51.079Z,67.20
2018-07-07T02:46:18.994Z,66.40
2018-07-07T02:48:46.642Z,66.30
2018-07-07T02:51:14.508Z,67.00
2018-07-07T02:56:09.936Z,66.70
2018-07-07T02:58:37.703Z,65.70
2018-07-07T03:01:05.499Z,65.80
2018-07-07T03:03:33.377Z,66.20
2018-07-07T03:06:01.198Z,66.50
2018-07-07T03:08:28.927Z,65.80
2018-07-07T03:10:56.739Z,65.80
2018-07-07T03:15:52.233Z,66.80
2018-07-07T03:18:20.012Z,66.20
2018-07-07T03:20:47.855Z,66.50
2018-07-07T03:23:15.592Z,66.20
2018-07-07T03:25:43.311Z,66.20
2018-07-07T03:28:11.069Z,66.40
2018-07-07T03:30:38.815Z,66.60
2018-07-07T03:33:06.563Z,66.80
2018-07-07T03:35:34.311Z,66.50
2018-07-07T03:38:03.622Z,66.50
2018-07-07T03:40:31.684Z,66.90
2018-07-07T03:42:59.725Z,66.30
2018-07-07T03:45:27.926Z,67.10
2018-07-07T03:47:55.970Z,67.20
2018-07-07T03:50:24.307Z,66.60
2018-07-07T03:52:52.512Z,67.40
2018-07-07T03:55:22.032Z,67.00
2018-07-07T03:57:50.174Z,66.80
2018-07-07T04:00:18.381Z,67.10
2018-07-07T04:02:46.590Z,67.10
2018-07-07T04:05:14.590Z,65.70
2018-07-07T04:07:42.786Z,64.10
2018-07-07T04:10:11.078Z,63.60
2018-07-07T04:12:39.921Z,64.00
2018-07-07T04:15:08.906Z,63.90
2018-07-07T04:17:37.118Z,63.10
2018-07-07T04:20:05.235Z,62.40
2018-07-07T04:22:33.256Z,62.30
2018-07-07T04:25:01.785Z,62.80
2018-07-07T04:27:30.026Z,62.40
2018-07-07T04:29:58.153Z,62.60
2018-07-07T04:32:26.563Z,62.60
2018-07-07T04:34:54.801Z,63.10
2018-07-07T04:37:23.108Z,63.10
2018-07-07T04:39:51.740Z,63.20
2018-07-07T04:42:20.400Z,63.80
2018-07-07T04:44:48.782Z,64.40
2018-07-07T04:47:16.954Z,63.50
2018-07-07T04:52:13.691Z,63.80
2018-07-07T04:54:41.851Z,63.60
2018-07-07T04:57:09.958Z,63.00
2018-07-07T04:59:38.235Z,62.70
2018-07-07T05:02:06.424Z,62.80
2018-07-07T05:04:34.755Z,63.00
2018-07-07T05:07:03.845Z,63.50
2018-07-07T05:09:32.021Z,63.30
2018-07-07T05:12:00.335Z,62.60
2018-07-07T05:14:28.567Z,63.70
2018-07-07T05:16:56.728Z,64.10
2018-07-07T05:21:53.273Z,65.50
2018-07-07T05:24:21.410Z,62.90
2018-07-07T05:26:50.062Z,63.40
2018-07-07T05:29:18.492Z,63.40
2018-07-07T05:31:46.682Z,63.20
2018-07-07T05:34:15.139Z,64.10
2018-07-07T05:36:43.489Z,64.10
2018-07-07T05:39:11.565Z,63.50
2018-07-07T05:41:39.914Z,63.60
2018-07-07T05:46:36.396Z,62.20
2018-07-07T05:49:04.501Z,62.60
2018-07-07T05:51:32.766Z,62.70
2018-07-07T05:54:00.789Z,62.60
2018-07-07T05:56:28.747Z,61.90
2018-07-07T05:58:56.752Z,60.50
2018-07-07T06:01:25.069Z,60.40
2018-07-07T06:03:53.279Z,59.10
2018-07-07T06:06:21.347Z,60.70
2018-07-07T06:08:49.383Z,58.90
2018-07-07T06:11:17.456Z,58.10
2018-07-07T06:13:45.742Z,55.00
2018-07-07T06:16:13.843Z,51.90
2018-07-07T06:18:42.021Z,51.00
2018-07-07T06:21:10.234Z,50.50
2018-07-07T06:23:38.240Z,50.30
2018-07-07T06:26:06.370Z,50.30
2018-07-07T06:31:02.238Z,49.20
2018-07-07T06:33:30.201Z,47.40
2018-07-07T06:35:58.214Z,47.90
2018-07-07T06:38:26.388Z,46.70
2018-07-07T06:40:54.460Z,47.20
2018-07-07T06:43:22.504Z,47.60
2018-07-07T06:45:50.573Z,45.90
2018-07-07T06:48:18.848Z,45.00
2018-07-07T06:50:47.095Z,45.30
2018-07-07T06:53:15.062Z,46.20
2018-07-07T06:55:43.298Z,47.10
2018-07-07T06:58:12.203Z,45.80
2018-07-07T07:00:40.230Z,45.30
2018-07-07T07:03:08.333Z,44.40
2018-07-07T07:05:36.787Z,45.40
2018-07-07T07:08:04.896Z,44.90
2018-07-07T07:10:33.071Z,45.10
2018-07-07T07:13:01.105Z,45.50
2018-07-07T07:15:29.081Z,44.80
2018-07-07T07:17:57.422Z,45.10
2018-07-07T07:20:25.872Z,43.50
2018-07-07T07:22:54.697Z,42.70
2018-07-07T07:25:23.895Z,42.50
2018-07-07T07:27:51.887Z,43.00
2018-07-07T07:30:20.035Z,43.60
2018-07-07T07:32:48.010Z,43.80
2018-07-07T07:35:16.067Z,42.90
2018-07-07T07:37:44.149Z,41.30
2018-07-07T07:40:12.352Z,40.20
2018-07-07T07:42:40.297Z,41.10
2018-07-07T07:45:08.370Z,40.00
2018-07-07T07:47:36.512Z,38.40
2018-07-07T07:52:32.487Z,37.40
2018-07-07T07:55:00.386Z,36.20
2018-07-07T07:57:28.829Z,34.70
2018-07-07T07:59:57.377Z,33.50
2018-07-07T08:02:25.768Z,32.40
2018-07-07T08:04:53.887Z,32.80
2018-07-07T08:07:21.939Z,31.00
2018-07-07T08:09:49.841Z,30.20
2018-07-07T08:12:18.100Z,31.10
2018-07-07T08:14:46.273Z,29.80
2018-07-07T08:17:14.181Z,29.20
2018-07-07T08:19:42.175Z,29.80
2018-07-07T08:22:10.296Z,29.10
2018-07-07T08:24:38.361Z,29.30
2018-07-07T08:27:06.465Z,28.80
2018-07-07T08:29:34.339Z,29.40
2018-07-07T08:32:02.366Z,27.70
2018-07-07T08:34:30.220Z,27.80
2018-07-07T08:39:26.020Z,26.40
2018-07-07T08:41:53.983Z,26.60
2018-07-07T08:44:21.631Z,26.00
2018-07-07T08:46:49.372Z,24.50
2018-07-07T08:54:12.368Z,20.30
2018-07-07T08:59:07.703Z,19.60
2018-07-07T09:01:35.400Z,20.30
2018-07-07T09:04:03.164Z,20.90
2018-07-07T09:06:30.871Z,18.80
2018-07-07T09:11:26.203Z,18.30
2018-07-07T09:16:21.827Z,18.20
2018-07-07T09:21:17.180Z,18.70
2018-07-07T09:23:44.929Z,18.70
2018-07-07T09:26:12.667Z,18.70
2018-07-07T09:31:08.742Z,17.90
2018-07-07T09:33:36.480Z,15.80
2018-07-07T09:38:31.905Z,15.40
2018-07-07T09:45:55.043Z,16.70
2018-07-07T09:48:22.789Z,16.00
2018-07-07T09:50:50.535Z,16.00
2018-07-07T09:55:46.009Z,15.90
2018-07-07T09:58:13.774Z,14.20
2018-07-07T10:00:42.332Z,14.40
2018-07-07T10:03:10.911Z,15.60
2018-07-07T10:05:38.763Z,16.30
2018-07-07T10:10:34.720Z,16.50
2018-07-07T10:13:02.835Z,15.30
2018-07-07T10:15:30.626Z,14.70
2018-07-07T10:17:58.426Z,15.60
2018-07-07T10:20:26.383Z,14.70
2018-07-07T10:22:54.121Z,15.00
2018-07-07T10:30:17.205Z,15.50
2018-07-07T10:32:44.992Z,15.20
2018-07-07T10:37:40.607Z,16.30
2018-07-07T10:42:36.052Z,15.50
2018-07-07T10:45:03.955Z,16.60
2018-07-07T10:47:31.818Z,15.70
2018-07-07T10:49:59.583Z,15.40
2018-07-07T10:52:27.387Z,16.40
2018-07-07T10:54:55.167Z,15.50
2018-07-07T10:57:22.995Z,14.00
2018-07-07T10:59:51.144Z,13.60
2018-07-07T11:02:19.099Z,14.00
2018-07-07T11:04:46.896Z,14.00
2018-07-07T11:07:14.738Z,13.80
2018-07-07T11:09:42.627Z,13.90
2018-07-07T11:12:10.453Z,13.80
2018-07-07T11:17:05.995Z,13.90
2018-07-07T11:19:33.804Z,13.40
2018-07-07T11:22:01.608Z,12.00
2018-07-07T11:26:57.104Z,11.00
2018-07-07T11:29:24.915Z,11.90
2018-07-07T11:31:52.695Z,11.40
2018-07-07T11:34:20.524Z,12.20
2018-07-07T11:36:49.059Z,12.10
2018-07-07T11:39:16.790Z,12.00
2018-07-07T11:41:44.684Z,11.60
2018-07-07T11:44:12.516Z,11.60
2018-07-07T11:46:40.444Z,11.90
2018-07-07T11:49:08.204Z,12.20
2018-07-07T11:51:36.040Z,11.20
2018-07-07T11:54:03.888Z,10.90
2018-07-07T11:56:31.652Z,10.10
2018-07-07T11:58:59.429Z,10.70
2018-07-07T12:01:27.351Z,10.40
2018-07-07T12:03:55.149Z,10.60
2018-07-07T12:06:22.952Z,11.50
2018-07-07T12:08:50.747Z,12.50
2018-07-07T12:11:18.628Z,11.80
2018-07-07T12:13:46.393Z,11.90
2018-07-07T12:16:14.249Z,12.50
2018-07-07T12:18:42.087Z,11.80
2018-07-07T12:21:09.891Z,11.60
2018-07-07T12:28:33.211Z,10.90
2018-07-07T12:31:00.971Z,10.60
2018-07-07T12:33:28.747Z,11.60
2018-07-07T12:35:56.528Z,11.70
2018-07-07T12:38:24.298Z,11.80
2018-07-07T12:40:52.113Z,11.70
2018-07-07T12:43:19.874Z,11.50
2018-07-07T12:45:47.675Z,11.80
2018-07-07T12:48:15.559Z,12.70
2018-07-07T12:50:43.346Z,12.30
2018-07-07T12:53:11.193Z,12.70
2018-07-07T12:55:38.945Z,13.10
2018-07-07T12:58:06.755Z,12.80
2018-07-07T13:00:34.548Z,13.10
2018-07-07T13:05:30.028Z,13.30
2018-07-07T13:07:57.831Z,13.50
2018-07-07T13:10:25.583Z,13.70
2018-07-07T13:12:53.434Z,14.60
2018-07-07T13:17:48.844Z,15.10
2018-07-07T13:20:16.693Z,14.50
2018-07-07T13:22:44.463Z,15.00
2018-07-07T13:25:12.272Z,14.40
2018-07-07T13:30:07.777Z,14.90
2018-07-07T13:32:35.564Z,15.80
2018-07-07T13:35:03.436Z,15.60
2018-07-07T13:37:31.257Z,15.60
2018-07-07T13:39:59.103Z,15.50
2018-07-07T13:44:54.487Z,15.70
2018-07-07T13:47:22.318Z,15.20
2018-07-07T13:49:50.052Z,15.10
2018-07-07T13:54:45.479Z,15.20
2018-07-07T14:02:08.542Z,15.80
2018-07-07T14:04:36.350Z,15.70
2018-07-07T14:07:04.132Z,16.90
2018-07-07T14:09:31.938Z,16.60
2018-07-07T14:11:59.783Z,16.60
2018-07-07T14:14:27.596Z,16.90
2018-07-07T14:16:55.426Z,17.90
2018-07-07T14:21:50.734Z,17.00
2018-07-07T14:24:18.504Z,17.60
2018-07-07T14:26:46.296Z,17.50
2018-07-07T14:31:41.778Z,17.10
2018-07-07T14:36:37.227Z,16.70
2018-07-07T14:39:06.162Z,18.00
2018-07-07T14:44:03.470Z,17.90
2018-07-07T14:46:32.231Z,17.90
2018-07-07T14:49:00.112Z,18.60
2018-07-07T14:51:27.932Z,18.50
2018-07-07T14:56:24.103Z,19.60
2018-07-07T15:01:19.724Z,18.90
2018-07-07T15:03:47.531Z,18.90
2018-07-07T15:06:15.406Z,19.80
2018-07-07T15:08:43.251Z,19.20
2018-07-07T15:11:11.291Z,19.30
2018-07-07T15:13:39.138Z,20.40
2018-07-07T15:16:07.011Z,20.20
2018-07-07T15:18:35.466Z,20.80
2018-07-07T15:21:03.533Z,20.90
2018-07-07T15:23:31.448Z,21.50
2018-07-07T15:28:26.880Z,20.70
2018-07-07T15:30:54.680Z,21.30
2018-07-07T15:33:22.468Z,22.40
2018-07-07T15:35:50.357Z,21.30
2018-07-07T15:38:18.125Z,21.10
2018-07-07T15:40:45.907Z,20.60
2018-07-07T15:43:13.656Z,20.50
2018-07-07T15:45:41.444Z,21.10
2018-07-07T15:48:09.297Z,21.40
2018-07-07T15:50:37.155Z,22.10
2018-07-07T15:55:32.737Z,21.60
2018-07-07T15:58:00.504Z,21.70
2018-07-07T16:00:28.292Z,22.20
2018-07-07T16:02:56.452Z,22.10
2018-07-07T16:05:24.343Z,22.20
2018-07-07T16:07:52.248Z,22.20
2018-07-07T16:10:20.057Z,22.40
2018-07-07T16:12:47.840Z,23.40
2018-07-07T16:15:15.710Z,22.90
2018-07-07T16:17:43.489Z,23.50
2018-07-07T16:20:11.268Z,23.20
2018-07-07T16:22:39.093Z,23.30
2018-07-07T16:25:06.897Z,23.20
2018-07-07T16:27:34.684Z,22.70
2018-07-07T16:30:02.532Z,22.80
2018-07-07T16:32:30.391Z,23.20
2018-07-07T16:34:58.155Z,22.70
2018-07-07T16:37:25.976Z,23.50
2018-07-07T16:39:53.835Z,23.70
2018-07-07T16:42:21.828Z,23.50
2018-07-07T16:44:49.784Z,24.00
2018-07-07T16:47:17.623Z,23.80
2018-07-07T16:49:45.487Z,24.10
2018-07-07T16:52:13.363Z,24.60
2018-07-07T16:54:42.623Z,25.00
2018-07-07T17:02:07.373Z,24.40
2018-07-07T17:04:35.480Z,25.10
2018-07-07T17:07:03.379Z,25.20
2018-07-07T17:09:32.064Z,25.30
2018-07-07T17:12:00.167Z,25.20
2018-07-07T17:14:28.096Z,25.80
2018-07-07T17:16:56.056Z,25.90
2018-07-07T17:19:24.330Z,26.30
2018-07-07T17:24:21.776Z,26.00
2018-07-07T17:26:49.651Z,26.00
2018-07-07T17:29:17.607Z,26.00
2018-07-07T17:31:45.799Z,26.70
2018-07-07T17:34:13.764Z,26.90
2018-07-07T17:36:42.089Z,27.10
2018-07-07T17:39:09.985Z,26.70
2018-07-07T17:41:37.858Z,26.00
2018-07-07T17:44:05.744Z,26.60
2018-07-07T17:46:33.606Z,26.80
2018-07-07T17:49:01.464Z,26.00
2018-07-07T17:51:29.912Z,26.00
2018-07-07T17:56:26.369Z,25.90
2018-07-07T18:01:22.059Z,26.70
2018-07-07T18:03:50.741Z,26.90
2018-07-07T18:06:18.513Z,27.20
2018-07-07T18:08:46.305Z,27.30
2018-07-07T18:11:14.092Z,27.70
2018-07-07T18:16:09.522Z,28.10
2018-07-07T18:21:05.420Z,27.80
2018-07-07T18:23:33.314Z,27.30
2018-07-07T18:26:01.180Z,27.60
2018-07-07T18:30:56.665Z,27.70
2018-07-07T18:33:24.398Z,28.20
2018-07-07T18:35:52.995Z,28.50
2018-07-07T18:38:20.819Z,28.60
2018-07-07T18:40:48.647Z,28.60
2018-07-07T18:43:16.482Z,28.80
2018-07-07T18:45:44.293Z,28.80
2018-07-07T18:48:12.033Z,29.10
2018-07-07T18:50:39.815Z,29.10
2018-07-07T18:53:07.641Z,29.40
2018-07-07T18:55:35.404Z,29.50
2018-07-07T18:58:03.193Z,29.90
2018-07-07T19:00:31.011Z,30.00
2018-07-07T19:05:26.436Z,30.90
2018-07-07T19:07:54.235Z,30.60
2018-07-07T19:10:21.963Z,30.50
2018-07-07T19:12:49.726Z,30.50
2018-07-07T19:15:20.011Z,30.80
2018-07-07T19:17:48.457Z,31.10
2018-07-07T19:22:55.266Z,31.60
2018-07-07T19:25:28.601Z,31.50
2018-07-07T19:27:56.348Z,31.70
2018-07-07T19:30:24.179Z,32.00
2018-07-07T19:32:57.547Z,32.00
2018-07-07T19:35:30.961Z,32.20
2018-07-07T19:37:58.662Z,32.60
2018-07-07T19:40:26.375Z,32.20
2018-07-07T19:42:54.067Z,31.80
2018-07-07T19:45:21.822Z,32.00
2018-07-07T19:50:17.214Z,32.60
2018-07-07T19:52:44.967Z,32.60
2018-07-07T19:55:12.691Z,32.50
2018-07-07T19:57:40.390Z,33.60
2018-07-07T20:00:08.168Z,33.40
2018-07-07T20:02:35.911Z,33.80
2018-07-07T20:05:03.704Z,34.10
2018-07-07T20:07:31.448Z,35.20
2018-07-07T20:09:59.232Z,34.60
2018-07-07T20:12:26.951Z,34.60
2018-07-07T20:14:54.692Z,34.90
2018-07-07T20:17:33.959Z,34.90
2018-07-07T20:20:38.458Z,34.60
2018-07-07T20:23:07.563Z,34.30
2018-07-07T20:25:35.315Z,34.70
2018-07-07T20:28:08.731Z,34.60
2018-07-07T20:30:36.702Z,34.50
2018-07-07T20:33:05.128Z,34.30
2018-07-07T20:35:32.901Z,34.60
2018-07-07T20:38:00.683Z,34.40
2018-07-07T20:40:28.588Z,34.40
2018-07-07T20:42:56.647Z,34.20
2018-07-07T20:45:24.432Z,34.20
2018-07-07T20:47:52.548Z,34.20
2018-07-07T20:52:47.983Z,35.20
2018-07-07T20:55:15.738Z,34.00
2018-07-07T20:57:43.599Z,34.60
2018-07-07T21:00:11.439Z,35.00
2018-07-07T21:02:39.187Z,35.20
2018-07-07T21:05:07.024Z,36.00
2018-07-07T21:07:34.888Z,36.20
2018-07-07T21:10:02.779Z,36.20
2018-07-07T21:12:30.555Z,36.40
2018-07-07T21:14:58.428Z,36.50
2018-07-07T21:17:26.257Z,37.10
2018-07-07T21:19:54.101Z,37.30
2018-07-07T21:22:22.105Z,37.20
2018-07-07T21:24:50.009Z,37.90
2018-07-07T21:27:17.811Z,38.20
2018-07-07T21:29:45.691Z,39.00
2018-07-07T21:32:13.588Z,38.50
2018-07-07T21:34:41.411Z,38.80
2018-07-07T21:39:36.857Z,39.80
2018-07-07T21:42:04.717Z,39.50
2018-07-07T21:44:32.563Z,39.70
2018-07-07T21:47:00.335Z,40.20
2018-07-07T21:49:28.131Z,40.50
2018-07-07T21:51:55.932Z,40.80
2018-07-07T21:54:23.764Z,41.20
2018-07-07T21:56:55.173Z,41.30
2018-07-07T21:59:23.676Z,41.30
2018-07-07T22:01:58.053Z,42.20
2018-07-07T22:04:32.255Z,41.90
2018-07-07T22:07:06.901Z,42.00
2018-07-07T22:09:35.655Z,42.50
2018-07-07T22:12:03.497Z,42.60
2018-07-07T22:14:31.580Z,42.80
2018-07-07T22:16:59.416Z,42.90
2018-07-07T22:19:27.296Z,43.90
2018-07-07T22:22:03.701Z,43.30
2018-07-07T22:24:31.578Z,43.70
2018-07-07T22:27:01.398Z,44.50
2018-07-07T22:29:29.299Z,43.80
2018-07-07T22:31:59.261Z,44.10
2018-07-07T22:34:31.322Z,44.30
2018-07-07T22:36:59.215Z,44.60
2018-07-07T22:39:27.067Z,45.00
2018-07-07T22:41:57.160Z,44.80
2018-07-07T22:44:24.968Z,45.50
2018-07-07T22:46:53.313Z,45.10
2018-07-07T22:49:21.132Z,45.40
2018-07-07T22:51:48.987Z,45.90
2018-07-07T22:54:16.771Z,45.20
2018-07-07T23:01:40.706Z,46.80
2018-07-07T23:04:08.476Z,46.00
2018-07-07T23:06:38.095Z,46.30
2018-07-07T23:09:07.299Z,46.80
2018-07-07T23:11:35.622Z,47.20
2018-07-07T23:14:03.476Z,47.50
2018-07-07T23:16:31.655Z,47.90
2018-07-07T23:18:59.792Z,48.00
2018-07-07T23:21:27.686Z,48.40
2018-07-07T23:23:55.576Z,49.10
2018-07-07T23:26:23.379Z,48.70
2018-07-07T23:28:51.386Z,49.50
2018-07-07T23:31:19.255Z,50.00
2018-07-07T23:33:47.025Z,49.90
2018-07-07T23:36:14.839Z,51.10
2018-07-07T23:38:43.353Z,51.50
2018-07-07T23:41:11.811Z,52.40
2018-07-07T23:43:40.060Z,52.50
2018-07-07T23:46:08.016Z,53.10
2018-07-07T23:48:35.918Z,53.70
2018-07-07T23:51:03.876Z,54.50
2018-07-07T23:53:31.858Z,55.80
2018-07-07T23:55:59.671Z,55.70
2018-07-07T23:58:27.559Z,55.50
